Terminal Aerodrome Forecast
Issued by NWS Cleveland, OH

Home | Current Version | Previous Version | Text Only | Print | Product List | Glossary Off
Versions: 1 2 3 4 5 6 7 8 9 10 11 12 13 14 15 16 17 18 19 20 21

303
FTUS41 KCLE 231238 AAA
TAFCAK
TAF AMD
KCAK 231238Z 2313/2412 20010KT 4SM BR OVC006
      TEMPO 2313/2316 6SM BR BKN010
     FM231600 22010KT 6SM HZ BKN020
     FM232200 23006KT 5SM HZ VCSH OVC025
     FM240300 14005KT 3SM -SHRA BR OVC012=

USA.gov is the U.S. government's official web portal to all federal, state and local government web resources and services.